METAR Data
IDs: Format: Raw Decoded Include TAF

Data at: 0105 UTC 01 Mar 2021

KJBR 010053Z AUTO 00000KT 3SM RA BR OVC070 16/15 A2989 RMK AO2 SLP119 P0025 T01560150 TSNO $